メインページ
METAR-TAF:

METAR-TAF

空港 :

東京 / 羽田国際空港, 日本

東京国際空港

緯度: 35-33N, 経度: 139-47E, 海抜: 5m

現時点の気象観測

当レポートは16分前の10:30(UTC)に作成
西/北西の風 6kt
気温 9°C
湿度 76%
気圧 1017 hPa
視程: 9000m
高度2000ftの雲はほとんどない
高度4000ftの雲は散在している
高度5000ftの千切れ雲あり
弱いにわか雨

METAR: RJTT 221030Z 30006KT 9000 -SHRA FEW020 SCT040 BKN050 09/05 Q1017 TEMPO 4000 -SHRA BR FEW005 BKN008

時間: 19:46 (10:46 UTC)

予報

当レポートは5時間41分前の05:05(UTC)に作成
予報は22日の 06時(UTC)から 23日の 12時(UTC)まで有効
南東の風 5kt
視程: 8000m
高度1000ftの雲はほとんどない
高度2000ftの千切れ雲あり
22日の 07時(UTC)から 22日の 09時(UTC)まで徐々に
北西の風 6kt
22日の 13時(UTC)から 22日の 15時(UTC)まで徐々に
視程: 4000m
高度500ftの雲はほとんどない
高度800ftの千切れ雲あり
弱いにわか雨, 靄
22日の 17時(UTC)から 23日の 00時(UTC)まで一時的に
視程: 3000m
高度300ftの雲はほとんどない
高度500ftの千切れ雲あり
にわか雨, 靄
23日の 03時(UTC)から 23日の 06時(UTC)まで徐々に
視程10km以上
高度3000ftの雲はほとんどない
高度5000ftの千切れ雲あり

TAF: RJTT 220505Z 2206/2312 14005KT 8000 FEW010 BKN020 BECMG 2207/2209 32006KT BECMG 2213/2215 4000 -SHRA BR FEW005 BKN008 TEMPO 2217/2300 3000 SHRA BR FEW003 BKN005 BECMG 2303/2306 9999 NSW FEW030 BKN050

4,000以上の空港の気象観測と天気予報(METAR報とTAF報)

利用可能な観測所は地図上に黄色い丸と赤い丸で示す。

丸の上にカーソルを重ねると観測所名を参照できる。

次にクリックすると気象観測と天気予報を参照できる。

マップの切り替え:黒色「×」印の緑ボタンをクリックして拡大、「-」印の緑ボタンをクリックして縮小、緑色の三角印をクリックして隣りの地図に切り替え


METAR-TAF: